TimeCST,TemperatureF,Dew PointF,Humidity,Sea Level PressureIn,VisibilityMPH,Wind Direction,Wind SpeedMPH,Gust SpeedMPH,PrecipitationIn,Events,Conditions,WindDirDegrees,DateUTC
12:53 AM,33.1,28.9,85,29.83,9.0,South,3.5,-,N/A,,Clear,180,2013-12-02 06:53:00
1:53 AM,36.0,30.0,79,29.81,10.0,South,3.5,-,N/A,,Mostly Cloudy,190,2013-12-02 07:53:00
2:53 AM,39.0,30.9,73,29.80,10.0,South,3.5,-,N/A,,Clear,170,2013-12-02 08:53:00
3:53 AM,39.9,30.9,70,29.78,10.0,South,3.5,-,N/A,,Clear,180,2013-12-02 09:53:00
4:53 AM,39.0,30.0,70,29.76,10.0,Calm,Calm,-,N/A,,Clear,0,2013-12-02 10:53:00
5:53 AM,35.1,28.0,76,29.76,10.0,Calm,Calm,-,N/A,,Partly Cloudy,0,2013-12-02 11:53:00
6:53 AM,30.9,27.0,85,29.76,10.0,South,6.9,-,N/A,,Clear,190,2013-12-02 12:53:00
7:53 AM,30.0,27.0,88,29.75,10.0,South,5.8,-,N/A,,Clear,190,2013-12-02 13:53:00
8:53 AM,39.9,30.9,70,29.74,10.0,SSW,9.2,-,N/A,,Clear,200,2013-12-02 14:53:00
9:53 AM,46.0,32.0,58,29.74,10.0,SW,5.8,-,N/A,,Clear,230,2013-12-02 15:53:00
10:53 AM,51.1,33.1,50,29.74,10.0,WSW,6.9,-,N/A,,Clear,240,2013-12-02 16:53:00
11:53 AM,55.0,32.0,42,29.69,10.0,Calm,Calm,-,N/A,,Clear,0,2013-12-02 17:53:00
12:53 PM,60.1,32.0,35,29.65,10.0,Calm,Calm,-,N/A,,Clear,0,2013-12-02 18:53:00
1:53 PM,64.9,32.0,29,29.62,10.0,Calm,Calm,-,N/A,,Clear,0,2013-12-02 19:53:00
2:53 PM,64.9,32.0,29,29.59,10.0,SSW,8.1,-,N/A,,Clear,210,2013-12-02 20:53:00
3:53 PM,64.0,32.0,30,29.57,10.0,South,5.8,-,N/A,,Clear,180,2013-12-02 21:53:00
4:53 PM,60.1,34.0,38,29.60,10.0,SSW,6.9,-,N/A,,Clear,200,2013-12-02 22:53:00
5:53 PM,54.0,34.0,47,29.60,10.0,South,8.1,-,N/A,,Clear,190,2013-12-02 23:53:00
6:53 PM,46.9,33.1,59,29.60,10.0,South,9.2,-,N/A,,Clear,180,2013-12-03 00:53:00
7:53 PM,50.0,36.0,59,29.59,10.0,South,11.5,-,N/A,,Clear,180,2013-12-03 01:53:00
8:53 PM,45.0,35.1,68,29.58,10.0,South,8.1,-,N/A,,Clear,170,2013-12-03 02:53:00
9:53 PM,42.1,34.0,73,29.59,10.0,SSE,9.2,-,N/A,,Clear,160,2013-12-03 03:53:00
10:53 PM,41.0,34.0,76,29.58,10.0,SSE,6.9,-,N/A,,Clear,160,2013-12-03 04:53:00
11:53 PM,39.9,34.0,79,29.57,10.0,South,8.1,-,N/A,,Clear,170,2013-12-03 05:53:00